Sherwood, Maryland
Current Conditions -  °F | °C
As of 10:50 AM on Friday 21 Nov 2014 (Local Time) from KESN Reporting Station
Scattered Clouds Scattered Clouds  
Wind Chill: 24°   Ceiling: Unl
Heat Index: 36°   Visibility: 10mi
Dew Point: 12°   Wind: 22mph
Humidity: 38%   Direction: 330°NNW
Pressure: 30.47"   Gusts: 29mph
Location:  38.76°N, 76.32°W
Report Text: KESN 211550Z 33019G25KT 10SM SCT060 02/M11 A3047
Loading
Personal Weather Stations






























Interactive Weather Map New forecast layout! Learn more

10-Day Weather Forecast

Advertisements
Track Severe Weather on mobile